createdAt,value
2018-06-16T00:10:38.949Z,63.53
2018-06-16T00:13:12.701Z,63.67
2018-06-16T00:15:41.213Z,63.84
2018-06-16T00:18:09.629Z,63.82
2018-06-16T00:20:38.409Z,64.29
2018-06-16T00:23:07.297Z,64.47
2018-06-16T00:25:36.075Z,64.73
2018-06-16T00:28:04.917Z,64.23
2018-06-16T00:30:33.455Z,64.54
2018-06-16T00:36:08.875Z,64.30
2018-06-16T00:38:37.721Z,64.93
2018-06-16T00:41:06.140Z,64.97
2018-06-16T00:43:34.769Z,65.03
2018-06-16T00:46:03.162Z,65.28
2018-06-16T00:48:31.769Z,65.07
2018-06-16T00:51:00.086Z,64.88
2018-06-16T00:53:28.480Z,65.62
2018-06-16T00:55:57.397Z,65.84
2018-06-16T00:58:25.731Z,65.62
2018-06-16T01:00:54.034Z,65.54
2018-06-16T01:03:41.045Z,66.15
2018-06-16T01:06:09.337Z,65.93
2018-06-16T01:08:37.659Z,66.09
2018-06-16T01:11:06.091Z,66.70
2018-06-16T01:13:34.373Z,66.25
2018-06-16T01:16:02.663Z,66.86
2018-06-16T01:18:30.929Z,66.61
2018-06-16T01:20:59.205Z,67.10
2018-06-16T01:26:19.987Z,66.93
2018-06-16T01:28:48.345Z,66.76
2018-06-16T01:31:16.761Z,66.88
2018-06-16T01:33:45.145Z,66.59
2018-06-16T01:36:13.490Z,66.75
2018-06-16T01:38:41.789Z,67.13
2018-06-16T01:41:10.159Z,66.75
2018-06-16T01:43:38.515Z,66.64
2018-06-16T01:46:06.886Z,67.08
2018-06-16T01:48:35.269Z,66.53
2018-06-16T01:51:04.093Z,65.75
2018-06-16T01:59:17.740Z,65.60
2018-06-16T02:01:46.058Z,65.63
2018-06-16T02:04:14.409Z,65.18
2018-06-16T02:06:43.086Z,65.42
2018-06-16T02:09:12.889Z,65.72
2018-06-16T02:11:41.198Z,65.86
2018-06-16T02:14:11.097Z,66.15
2018-06-16T02:16:40.146Z,66.36
2018-06-16T02:19:08.578Z,66.70
2018-06-16T02:21:37.309Z,67.06
2018-06-16T02:24:06.477Z,67.21
2018-06-16T02:26:34.936Z,66.86
2018-06-16T02:29:04.033Z,66.82
2018-06-16T02:31:32.704Z,66.71
2018-06-16T02:34:01.433Z,67.18
2018-06-16T02:36:29.754Z,67.10
2018-06-16T02:38:59.309Z,66.85
2018-06-16T02:41:27.623Z,66.95
2018-06-16T02:43:55.956Z,66.97
2018-06-16T02:46:24.253Z,66.20
2018-06-16T02:48:52.587Z,66.13
2018-06-16T02:51:21.281Z,66.38
2018-06-16T02:53:49.611Z,66.60
2018-06-16T02:56:18.849Z,65.95
2018-06-16T02:58:47.169Z,66.11
2018-06-16T03:01:17.075Z,65.95
2018-06-16T03:03:45.661Z,65.94
2018-06-16T03:06:14.017Z,66.16
2018-06-16T03:08:42.541Z,65.91
2018-06-16T03:11:11.109Z,66.05
2018-06-16T03:13:39.588Z,66.33
2018-06-16T03:16:07.953Z,65.82
2018-06-16T03:18:36.314Z,65.73
2018-06-16T03:21:05.303Z,65.54
2018-06-16T03:23:38.737Z,65.73
2018-06-16T03:26:07.437Z,65.96
2018-06-16T03:28:35.709Z,65.80
2018-06-16T03:31:03.983Z,65.43
2018-06-16T03:33:37.481Z,65.94
2018-06-16T03:36:06.025Z,66.48
2018-06-16T03:38:34.897Z,66.02
2018-06-16T03:41:03.189Z,66.10
2018-06-16T03:49:26.185Z,65.42
2018-06-16T03:51:59.594Z,64.70
2018-06-16T03:54:28.119Z,65.08
2018-06-16T03:56:56.460Z,64.52
2018-06-16T03:59:24.751Z,65.10
2018-06-16T04:01:53.172Z,65.17
2018-06-16T04:04:21.445Z,65.05
2018-06-16T04:06:49.785Z,64.71
2018-06-16T04:09:18.677Z,65.05
2018-06-16T04:11:46.962Z,65.43
2018-06-16T04:14:15.237Z,65.21
2018-06-16T04:16:43.723Z,65.13
2018-06-16T04:19:12.063Z,65.17
2018-06-16T04:21:41.752Z,65.34
2018-06-16T04:24:10.210Z,65.45
2018-06-16T04:26:38.703Z,65.80
2018-06-16T04:29:07.105Z,66.04
2018-06-16T04:31:35.415Z,65.82
2018-06-16T04:34:17.551Z,65.70
2018-06-16T04:36:46.171Z,66.33
2018-06-16T04:39:14.494Z,65.78
2018-06-16T04:41:43.675Z,66.53
2018-06-16T04:44:12.029Z,65.96
2018-06-16T04:46:40.412Z,66.14
2018-06-16T04:49:08.829Z,65.98
2018-06-16T04:51:37.365Z,66.25
2018-06-16T04:54:05.785Z,66.25
2018-06-16T04:56:34.167Z,66.59
2018-06-16T04:59:02.566Z,66.06
2018-06-16T05:01:32.111Z,66.32
2018-06-16T05:04:09.981Z,66.17
2018-06-16T05:06:38.729Z,65.73
2018-06-16T05:09:09.155Z,66.19
2018-06-16T05:11:37.514Z,65.62
2018-06-16T05:14:06.397Z,65.77
2018-06-16T05:16:34.815Z,65.71
2018-06-16T05:19:03.777Z,66.16
2018-06-16T05:21:32.701Z,65.77
2018-06-16T05:24:06.635Z,65.98
2018-06-16T05:26:35.049Z,65.93
2018-06-16T05:29:03.469Z,65.35
2018-06-16T05:31:31.907Z,65.70
2018-06-16T05:37:02.473Z,64.94
2018-06-16T05:39:30.947Z,64.68
2018-06-16T05:41:59.425Z,64.33
2018-06-16T05:44:27.763Z,64.37
2018-06-16T05:46:56.097Z,63.91
2018-06-16T05:49:24.419Z,63.79
2018-06-16T05:51:53.411Z,63.65
2018-06-16T05:54:21.829Z,63.92
2018-06-16T05:56:50.356Z,63.86
2018-06-16T05:59:18.790Z,62.90
2018-06-16T06:01:47.080Z,62.65
2018-06-16T06:04:15.469Z,62.42
2018-06-16T06:06:43.829Z,62.41
2018-06-16T06:09:12.209Z,63.07
2018-06-16T06:11:41.057Z,62.87
2018-06-16T06:14:10.196Z,62.84
2018-06-16T06:16:39.120Z,63.35
2018-06-16T06:19:07.447Z,64.03
2018-06-16T06:21:35.815Z,63.97
2018-06-16T06:24:04.397Z,64.36
2018-06-16T06:26:32.835Z,64.29
2018-06-16T06:29:01.888Z,64.62
2018-06-16T06:31:30.996Z,63.37
2018-06-16T06:33:59.552Z,63.24
2018-06-16T06:36:27.998Z,62.89
2018-06-16T06:38:56.351Z,63.09
2018-06-16T06:41:25.589Z,64.00
2018-06-16T06:43:54.219Z,64.38
2018-06-16T06:46:23.153Z,64.01
2018-06-16T06:48:57.961Z,64.29
2018-06-16T06:51:26.551Z,65.41
2018-06-16T06:54:00.054Z,65.44
2018-06-16T06:56:28.517Z,64.99
2018-06-16T06:58:57.057Z,64.68
2018-06-16T07:01:25.839Z,65.05
2018-06-16T07:03:54.289Z,65.62
2018-06-16T07:06:22.661Z,65.16
2018-06-16T07:08:51.111Z,64.62
2018-06-16T07:11:24.273Z,64.48
2018-06-16T07:13:52.804Z,64.36
2018-06-16T07:16:21.375Z,65.06
2018-06-16T07:18:49.759Z,64.85
2018-06-16T07:21:18.417Z,64.44
2018-06-16T07:23:47.341Z,64.42
2018-06-16T07:26:16.360Z,63.83
2018-06-16T07:28:47.014Z,62.51
2018-06-16T07:31:15.490Z,62.42
2018-06-16T07:33:44.057Z,62.16
2018-06-16T07:36:12.645Z,62.22
2018-06-16T07:38:41.040Z,62.17
2018-06-16T07:41:09.841Z,61.57
2018-06-16T07:43:38.397Z,61.89
2018-06-16T07:46:06.979Z,62.15
2018-06-16T07:48:35.609Z,61.43
2018-06-16T07:51:04.277Z,61.02
2018-06-16T07:53:32.982Z,61.17
2018-06-16T07:56:01.420Z,61.44
2018-06-16T07:58:29.846Z,61.18
2018-06-16T08:00:58.691Z,61.17
2018-06-16T08:03:27.264Z,60.83
2018-06-16T08:05:55.800Z,60.91
2018-06-16T08:08:24.159Z,60.79
2018-06-16T08:10:52.687Z,60.83
2018-06-16T08:13:21.205Z,61.15
2018-06-16T08:15:51.165Z,60.55
2018-06-16T08:18:20.492Z,60.77
2018-06-16T08:20:52.283Z,60.16
2018-06-16T08:23:21.133Z,59.62
2018-06-16T08:25:50.027Z,59.25
2018-06-16T08:28:19.573Z,58.88
2018-06-16T08:30:48.695Z,59.04
2018-06-16T08:33:17.423Z,58.63
2018-06-16T08:35:45.831Z,57.30
2018-06-16T08:38:14.414Z,57.21
2018-06-16T08:40:42.864Z,57.09
2018-06-16T08:43:17.804Z,56.52
2018-06-16T08:45:46.365Z,57.04
2018-06-16T08:48:14.730Z,56.73
2018-06-16T08:50:43.410Z,56.52
2018-06-16T08:53:12.014Z,56.50
2018-06-16T08:55:40.516Z,56.97
2018-06-16T08:58:08.842Z,57.36
2018-06-16T09:00:37.316Z,55.64
2018-06-16T09:03:05.861Z,56.11
2018-06-16T09:05:34.611Z,55.56
2018-06-16T09:08:03.009Z,56.22
2018-06-16T09:10:32.429Z,55.91
2018-06-16T09:13:00.895Z,55.83
2018-06-16T09:15:29.395Z,55.35
2018-06-16T09:17:57.805Z,53.98
2018-06-16T09:20:26.353Z,53.13
2018-06-16T09:22:55.058Z,52.19
2018-06-16T09:25:23.627Z,51.66
2018-06-16T09:27:52.218Z,52.11
2018-06-16T09:30:20.539Z,51.60
2018-06-16T09:32:49.074Z,52.67
2018-06-16T09:35:17.486Z,52.20
2018-06-16T09:37:45.953Z,50.81
2018-06-16T09:40:14.593Z,50.98
2018-06-16T09:42:43.139Z,51.43
2018-06-16T09:45:11.559Z,50.42
2018-06-16T09:47:39.979Z,49.98
2018-06-16T09:50:10.852Z,49.81
2018-06-16T09:52:40.520Z,50.04
2018-06-16T09:55:08.921Z,49.80
2018-06-16T09:57:37.318Z,49.20
2018-06-16T10:00:10.313Z,48.01
2018-06-16T10:02:38.977Z,46.75
2018-06-16T10:05:07.524Z,44.33
2018-06-16T10:07:36.047Z,44.51
2018-06-16T10:10:04.419Z,44.30
2018-06-16T10:12:33.157Z,42.85
2018-06-16T10:15:01.537Z,43.45
2018-06-16T10:17:30.040Z,43.14
2018-06-16T10:20:03.961Z,42.54
2018-06-16T10:22:32.511Z,42.05
2018-06-16T10:25:00.880Z,42.41
2018-06-16T10:27:29.705Z,42.96
2018-06-16T10:29:58.245Z,42.61
2018-06-16T10:32:26.648Z,43.23
2018-06-16T10:34:55.378Z,43.41
2018-06-16T10:37:23.880Z,43.61
2018-06-16T10:39:52.356Z,43.22
2018-06-16T10:42:20.973Z,44.00
2018-06-16T10:44:49.375Z,43.19
2018-06-16T10:47:17.775Z,43.95
2018-06-16T10:49:45.651Z,42.30
2018-06-16T10:52:13.373Z,42.42
2018-06-16T10:54:41.400Z,41.90
2018-06-16T10:57:09.053Z,40.94
2018-06-16T10:59:37.087Z,40.87
2018-06-16T11:02:04.844Z,40.27
2018-06-16T11:04:32.541Z,39.92
2018-06-16T11:07:00.229Z,37.39
2018-06-16T11:09:27.841Z,37.77
2018-06-16T11:11:55.496Z,36.94
2018-06-16T11:14:23.395Z,38.96
2018-06-16T11:16:51.032Z,38.26
2018-06-16T11:19:18.875Z,38.56
2018-06-16T11:21:46.461Z,38.64
2018-06-16T11:24:14.181Z,38.21
2018-06-16T11:26:41.828Z,38.53
2018-06-16T11:29:09.809Z,38.38
2018-06-16T11:31:37.569Z,37.42
2018-06-16T11:34:05.215Z,36.96
2018-06-16T11:36:32.821Z,36.18
2018-06-16T11:39:00.433Z,35.71
2018-06-16T11:41:28.034Z,35.00
2018-06-16T11:43:55.721Z,35.80
2018-06-16T11:46:23.431Z,35.43
2018-06-16T11:48:51.851Z,35.48
2018-06-16T11:51:20.332Z,34.41
2018-06-16T11:53:48.800Z,34.20
2018-06-16T11:56:17.248Z,34.83
2018-06-16T11:58:45.959Z,35.46
2018-06-16T12:01:14.296Z,34.95
2018-06-16T12:03:48.559Z,35.52
2018-06-16T12:06:17.077Z,35.58
2018-06-16T12:08:45.551Z,35.25
2018-06-16T12:11:13.983Z,34.88
2018-06-16T12:13:42.445Z,35.03
2018-06-16T12:16:10.879Z,34.80
2018-06-16T12:18:39.560Z,35.01
2018-06-16T12:21:08.057Z,34.18
2018-06-16T12:23:36.382Z,32.81
2018-06-16T12:26:04.751Z,33.68
2018-06-16T12:28:33.140Z,33.12
2018-06-16T12:31:01.600Z,33.03
2018-06-16T12:33:30.087Z,32.07
2018-06-16T12:35:58.547Z,31.54
2018-06-16T12:38:26.938Z,31.72
2018-06-16T12:40:55.406Z,31.60
2018-06-16T12:43:24.372Z,30.96
2018-06-16T12:45:52.742Z,31.07
2018-06-16T12:48:21.060Z,30.07
2018-06-16T12:50:49.501Z,29.21
2018-06-16T12:53:22.998Z,30.81
2018-06-16T12:55:51.347Z,30.25
2018-06-16T12:58:19.650Z,31.16
2018-06-16T13:00:48.167Z,31.84
2018-06-16T13:03:16.577Z,29.00
2018-06-16T13:05:44.913Z,28.69
2018-06-16T13:08:13.205Z,28.99
2018-06-16T13:10:41.493Z,30.24
2018-06-16T13:13:09.854Z,30.34
2018-06-16T13:18:14.095Z,31.55
2018-06-16T13:20:42.445Z,31.46
2018-06-16T13:23:10.736Z,31.52
2018-06-16T13:25:39.016Z,32.35
2018-06-16T13:28:07.609Z,32.12
2018-06-16T13:30:35.914Z,31.61
2018-06-16T13:33:04.392Z,31.74
2018-06-16T13:35:32.843Z,32.19
2018-06-16T13:38:01.194Z,32.16
2018-06-16T13:40:29.674Z,32.16
2018-06-16T13:42:58.050Z,32.79
2018-06-16T13:45:26.465Z,33.29
2018-06-16T13:47:54.874Z,33.37
2018-06-16T13:50:23.328Z,33.21
2018-06-16T13:52:51.796Z,33.51
2018-06-16T13:55:20.181Z,34.50
2018-06-16T13:57:49.074Z,34.05
2018-06-16T14:00:17.763Z,33.90
2018-06-16T14:02:46.500Z,33.48
2018-06-16T14:05:14.954Z,33.99
2018-06-16T14:07:43.353Z,33.83
2018-06-16T14:10:11.687Z,34.62
2018-06-16T14:12:40.167Z,33.94
2018-06-16T14:15:09.256Z,33.70
2018-06-16T14:17:37.675Z,34.51
2018-06-16T14:20:06.881Z,34.08
2018-06-16T14:22:35.226Z,33.71
2018-06-16T14:25:03.635Z,34.18
2018-06-16T14:27:32.183Z,33.80
2018-06-16T14:30:00.633Z,34.43
2018-06-16T14:32:29.077Z,34.47
2018-06-16T14:34:58.104Z,34.54
2018-06-16T14:37:27.079Z,34.26
2018-06-16T14:39:57.074Z,34.21
2018-06-16T14:42:25.718Z,33.81
2018-06-16T14:44:54.282Z,32.63
2018-06-16T14:47:22.815Z,33.11
2018-06-16T14:49:51.190Z,33.40
2018-06-16T14:52:19.773Z,33.27
2018-06-16T14:54:48.195Z,34.33
2018-06-16T14:57:16.713Z,33.24
2018-06-16T14:59:45.167Z,33.52
2018-06-16T15:02:14.735Z,33.64
2018-06-16T15:04:43.457Z,33.61
2018-06-16T15:07:12.172Z,33.78
2018-06-16T15:09:40.537Z,34.19
2018-06-16T15:12:09.005Z,33.96
2018-06-16T15:14:37.489Z,34.74
2018-06-16T15:17:06.009Z,34.14
2018-06-16T15:19:34.453Z,34.68
2018-06-16T15:22:02.917Z,34.91
2018-06-16T15:24:31.501Z,35.16
2018-06-16T15:26:59.939Z,35.04
2018-06-16T15:29:28.346Z,35.06
2018-06-16T15:31:56.648Z,34.80
2018-06-16T15:34:25.444Z,34.74
2018-06-16T15:36:54.187Z,34.75
2018-06-16T15:39:22.822Z,35.68
2018-06-16T15:41:51.240Z,35.68
2018-06-16T15:44:19.623Z,35.79
2018-06-16T15:46:47.937Z,35.45
2018-06-16T15:49:16.336Z,35.16
2018-06-16T15:51:45.639Z,35.81
2018-06-16T15:54:14.176Z,36.07
2018-06-16T15:56:42.725Z,35.43
2018-06-16T15:59:11.397Z,35.99
2018-06-16T16:01:39.838Z,35.41
2018-06-16T16:04:08.202Z,35.73
2018-06-16T16:06:36.657Z,35.50
2018-06-16T16:09:06.934Z,36.13
2018-06-16T16:11:35.596Z,36.53
2018-06-16T16:14:04.070Z,35.70
2018-06-16T16:16:32.434Z,35.96
2018-06-16T16:19:00.873Z,35.63
2018-06-16T16:21:29.416Z,35.62
2018-06-16T16:23:57.966Z,35.44
2018-06-16T16:26:26.344Z,35.86
2018-06-16T16:28:55.472Z,36.87
2018-06-16T16:31:23.956Z,36.20
2018-06-16T16:33:52.522Z,36.13
2018-06-16T16:36:21.232Z,36.65
2018-06-16T16:38:49.703Z,36.64
2018-06-16T16:41:18.117Z,36.17
2018-06-16T16:43:47.074Z,36.47
2018-06-16T16:46:15.547Z,35.83
2018-06-16T16:48:44.092Z,35.94
2018-06-16T16:51:12.838Z,36.15
2018-06-16T16:53:41.783Z,36.18
2018-06-16T16:56:10.222Z,36.37
2018-06-16T16:58:38.582Z,35.84
2018-06-16T17:01:07.383Z,36.01
2018-06-16T17:03:35.861Z,35.81
2018-06-16T17:06:04.317Z,36.06
2018-06-16T17:08:33.392Z,36.32
2018-06-16T17:11:02.775Z,36.37
2018-06-16T17:13:31.319Z,36.73
2018-06-16T17:15:59.845Z,36.82
2018-06-16T17:18:28.620Z,36.71
2018-06-16T17:20:57.122Z,37.13
2018-06-16T17:23:25.583Z,37.35
2018-06-16T17:25:54.023Z,37.70
2018-06-16T17:28:22.594Z,37.56
2018-06-16T17:30:51.046Z,37.04
2018-06-16T17:33:19.645Z,37.29
2018-06-16T17:35:48.454Z,37.08
2018-06-16T17:38:16.957Z,37.56
2018-06-16T17:40:45.434Z,37.87
2018-06-16T17:43:13.846Z,37.81
2018-06-16T17:45:42.304Z,37.53
2018-06-16T17:48:10.971Z,37.37
2018-06-16T17:50:39.441Z,37.16
2018-06-16T17:53:08.141Z,37.63
2018-06-16T17:55:36.575Z,37.41
2018-06-16T17:58:05.007Z,37.63
2018-06-16T18:00:33.728Z,38.07
2018-06-16T18:03:02.248Z,38.25
2018-06-16T18:05:30.749Z,38.16
2018-06-16T18:07:59.205Z,38.10
2018-06-16T18:10:27.794Z,38.42
2018-06-16T18:12:56.472Z,38.11
2018-06-16T18:15:24.888Z,38.00
2018-06-16T18:17:53.429Z,38.76
2018-06-16T18:20:22.054Z,38.68
2018-06-16T18:22:50.676Z,38.29
2018-06-16T18:25:19.660Z,39.33
2018-06-16T18:27:48.276Z,39.33
2018-06-16T18:30:16.890Z,39.40
2018-06-16T18:32:46.043Z,39.03
2018-06-16T18:35:14.554Z,39.37
2018-06-16T18:37:43.120Z,39.00
2018-06-16T18:40:11.641Z,39.36
2018-06-16T18:42:40.162Z,39.32
2018-06-16T18:45:08.659Z,39.74
2018-06-16T18:47:37.434Z,39.80
2018-06-16T18:50:05.910Z,39.84
2018-06-16T18:52:34.409Z,40.03
2018-06-16T18:55:04.043Z,40.32
2018-06-16T18:57:33.099Z,39.75
2018-06-16T19:00:02.047Z,40.23
2018-06-16T19:02:31.171Z,39.78
2018-06-16T19:04:59.884Z,39.71
2018-06-16T19:07:28.622Z,40.45
2018-06-16T19:09:57.579Z,40.44
2018-06-16T19:12:26.144Z,41.04
2018-06-16T19:14:54.548Z,40.86
2018-06-16T19:17:23.487Z,40.70
2018-06-16T19:19:51.884Z,40.91
2018-06-16T19:22:20.376Z,40.57
2018-06-16T19:24:48.874Z,40.96
2018-06-16T19:27:17.279Z,40.52
2018-06-16T19:29:45.791Z,40.91
2018-06-16T19:32:14.481Z,41.62
2018-06-16T19:34:42.974Z,40.16
2018-06-16T19:37:11.360Z,40.27
2018-06-16T19:39:39.738Z,41.31
2018-06-16T19:42:08.159Z,41.31
2018-06-16T19:44:36.556Z,41.36
2018-06-16T19:47:05.101Z,41.50
2018-06-16T19:49:33.661Z,41.85
2018-06-16T19:52:02.021Z,41.53
2018-06-16T19:54:30.698Z,42.05
2018-06-16T19:56:59.166Z,41.54
2018-06-16T19:59:27.998Z,42.19
2018-06-16T20:01:56.516Z,41.85
2018-06-16T20:04:25.340Z,42.52
2018-06-16T20:06:53.730Z,42.68
2018-06-16T20:09:22.419Z,42.42
2018-06-16T20:11:50.961Z,42.73
2018-06-16T20:14:19.448Z,42.91
2018-06-16T20:16:47.820Z,43.28
2018-06-16T20:19:16.182Z,43.59
2018-06-16T20:21:44.970Z,43.03
2018-06-16T20:24:13.576Z,43.07
2018-06-16T20:26:42.024Z,43.36
2018-06-16T20:29:10.748Z,43.26
2018-06-16T20:31:39.398Z,43.32
2018-06-16T20:34:07.838Z,43.67
2018-06-16T20:36:36.376Z,44.39
2018-06-16T20:39:06.551Z,44.41
2018-06-16T20:41:34.996Z,44.76
2018-06-16T20:44:03.606Z,44.46
2018-06-16T20:46:32.263Z,44.39
2018-06-16T20:49:00.993Z,44.87
2018-06-16T20:51:29.821Z,44.96
2018-06-16T20:53:58.356Z,44.97
2018-06-16T20:56:26.874Z,45.51
2018-06-16T20:58:56.022Z,45.21
2018-06-16T21:01:24.632Z,45.23
2018-06-16T21:03:53.465Z,45.71
2018-06-16T21:06:22.293Z,45.48
2018-06-16T21:08:50.816Z,46.21
2018-06-16T21:11:19.430Z,46.29
2018-06-16T21:13:48.194Z,45.80
2018-06-16T21:16:16.727Z,45.42
2018-06-16T21:18:45.441Z,45.49
2018-06-16T21:21:14.136Z,45.17
2018-06-16T21:23:43.244Z,45.51
2018-06-16T21:26:12.575Z,45.50
2018-06-16T21:28:41.150Z,45.17
2018-06-16T21:31:10.308Z,45.38
2018-06-16T21:33:38.831Z,45.05
2018-06-16T21:36:07.870Z,45.27
2018-06-16T21:38:36.412Z,45.95
2018-06-16T21:41:05.032Z,45.98
2018-06-16T21:43:33.585Z,45.39
2018-06-16T21:46:02.240Z,45.86
2018-06-16T21:48:30.766Z,45.64
2018-06-16T21:50:59.109Z,46.17
2018-06-16T21:53:27.502Z,45.61
2018-06-16T21:55:55.875Z,46.13
2018-06-16T21:58:24.446Z,46.22
2018-06-16T22:00:52.824Z,45.75
2018-06-16T22:03:21.237Z,46.68
2018-06-16T22:05:49.633Z,46.41
2018-06-16T22:08:25.250Z,45.55
2018-06-16T22:10:53.685Z,46.26
2018-06-16T22:13:22.428Z,46.21
2018-06-16T22:15:50.816Z,45.99
2018-06-16T22:18:19.194Z,46.30
2018-06-16T22:20:47.545Z,46.22
2018-06-16T22:23:16.112Z,46.38
2018-06-16T22:25:44.523Z,45.85
2018-06-16T22:28:12.931Z,45.92
2018-06-16T22:30:41.369Z,45.74
2018-06-16T22:33:09.715Z,45.50
2018-06-16T22:35:38.405Z,46.11
2018-06-16T22:38:06.708Z,46.17
2018-06-16T22:40:35.158Z,46.18
2018-06-16T22:43:03.584Z,45.72
2018-06-16T22:45:31.892Z,46.11
2018-06-16T22:48:00.222Z,46.60
2018-06-16T22:50:28.528Z,47.36
2018-06-16T22:52:57.256Z,47.51
2018-06-16T22:55:26.275Z,47.21
2018-06-16T22:57:56.170Z,47.13
2018-06-16T23:00:26.346Z,47.59
2018-06-16T23:02:54.994Z,47.69
2018-06-16T23:05:23.436Z,48.61
2018-06-16T23:07:52.282Z,48.54
2018-06-16T23:10:20.596Z,49.33
2018-06-16T23:12:48.978Z,49.02
2018-06-16T23:15:17.486Z,49.43
2018-06-16T23:17:46.238Z,50.46
2018-06-16T23:20:14.811Z,51.49
2018-06-16T23:22:43.168Z,52.27
2018-06-16T23:25:11.560Z,52.62
2018-06-16T23:27:39.912Z,53.20
2018-06-16T23:30:08.268Z,53.66
2018-06-16T23:32:41.640Z,52.80
2018-06-16T23:35:10.050Z,53.00
2018-06-16T23:37:38.542Z,52.79
2018-06-16T23:40:06.959Z,53.66
2018-06-16T23:42:35.337Z,53.34
2018-06-16T23:45:04.056Z,54.12
2018-06-16T23:47:32.334Z,53.56
2018-06-16T23:50:00.691Z,54.09
2018-06-16T23:52:47.946Z,55.01
2018-06-16T23:55:16.778Z,55.34
2018-06-16T23:57:45.160Z,55.54
